Nibulon 1 — UUAS4 — position and weather

sailwx.info

Track history (hours):
 
Tides and Currents Weather Stations Pressure Air Temp Water Temp Dewpoint Dewpoint Depression Visibility Wind Speed Wind Dir Waves Ship Positions

Nibulon 1

Last reported at 2014-Oct-30 17:33 UTC. Time now 2014-Oct-31 05:45 UTC.
Position N 47°35' E 035°02'.

Length 38 m; draft 2.6 m.

Type: Tug. MMSI: 272641000.

Date/timePositionNaut miles runAvg speedWind from/ knotsBaromVisibWave heightAir tempDewpointWater temp
2014-Oct-30 17:33N 47°35' E 035°02'4 3.9
2014-Oct-30 16:29N 47°39' E 035°06'4 4.3
2014-Oct-30 15:33N 47°42' E 035°08'4 4.0
2014-Oct-30 14:33N 47°46' E 035°09'2 2.1
2014-Oct-30 13:33N 47°48' E 035°09'3 2.9
2014-Oct-30 12:33N 47°50' E 035°06'2 1.7
2014-Oct-30 11:33N 47°52' E 035°06'1 1.0
2014-Oct-30 10:33N 47°53' E 035°06'0 0.0
2014-Oct-30 09:33N 47°53' E 035°06'3 3.0
2014-Oct-30 08:33N 47°50' E 035°07'2 1.8
2014-Oct-30 07:33N 47°49' E 035°09'4 3.2
2014-Oct-30 06:23N 47°52' E 035°06'1 0.7
2014-Oct-30 05:33N 47°52' E 035°06'0 0.5
2014-Oct-30 04:33N 47°53' E 035°06'0 0.0
2014-Oct-30 03:33N 47°53' E 035°06'3 3.2
2014-Oct-30 02:32N 47°56' E 035°07'  
2014-Oct-22 17:26N 47°59' E 035°07'4 5.1
2014-Oct-22 16:33N 47°54' E 035°07'1 1.4
2014-Oct-22 15:33N 47°53' E 035°06'1 0.9
2014-Oct-22 14:21N 47°52' E 035°05'2 2.7
2014-Oct-22 13:33N 47°50' E 035°07'2 2.5
2014-Oct-22 12:33N 47°48' E 035°10'4 4.4
2014-Oct-22 11:33N 47°52' E 035°05'0 0.0
2014-Oct-22 10:33N 47°52' E 035°05'0 0.3
2014-Oct-22 09:33N 47°52' E 035°05'0 0.4
2014-Oct-22 08:33N 47°51' E 035°05'4 3.8
2014-Oct-22 07:33N 47°49' E 035°09'0 0.0
2014-Oct-22 06:33N 47°49' E 035°09'0 0.0
2014-Oct-22 05:33N 47°49' E 035°09'0 0.0
2014-Oct-22 04:33N 47°49' E 035°09'0 0.0
2014-Oct-22 03:33N 47°49' E 035°09'0 0.0
2014-Oct-22 02:33N 47°49' E 035°09'0 0.0
2014-Oct-22 01:33N 47°49' E 035°09'0 0.1
2014-Oct-22 00:33N 47°49' E 035°09'0 0.0
2014-Oct-21 23:33N 47°49' E 035°09'0 0.0
2014-Oct-21 22:33N 47°49' E 035°09'3 3.2
2014-Oct-21 21:33N 47°45' E 035°10'5 4.9
2014-Oct-21 20:33N 47°41' E 035°08'5 5.0
2014-Oct-21 19:34N 47°37' E 035°03'  
Track history (hours):
 
Tides and Currents Weather Stations Pressure Air Temp Water Temp Dewpoint Dewpoint Depression Visibility Wind Speed Wind Dir Waves Ship Positions

Nibulon 1

Last reported at 2014-Oct-30 17:33 UTC. Time now 2014-Oct-31 05:45 UTC.
Position N 47°35' E 035°02'.

Length 38 m; draft 2.6 m.

Type: Tug. MMSI: 272641000.

Date/timePositionNaut miles runAvg speedWind from/ knotsBaromVisibWave heightAir tempDewpointWater temp
2014-Oct-30 17:33N 47°35' E 035°02'4 3.9
2014-Oct-30 16:29N 47°39' E 035°06'4 4.3
2014-Oct-30 15:33N 47°42' E 035°08'4 4.0
2014-Oct-30 14:33N 47°46' E 035°09'2 2.1
2014-Oct-30 13:33N 47°48' E 035°09'3 2.9
2014-Oct-30 12:33N 47°50' E 035°06'2 1.7
2014-Oct-30 11:33N 47°52' E 035°06'1 1.0
2014-Oct-30 10:33N 47°53' E 035°06'0 0.0
2014-Oct-30 09:33N 47°53' E 035°06'3 3.0
2014-Oct-30 08:33N 47°50' E 035°07'2 1.8
2014-Oct-30 07:33N 47°49' E 035°09'4 3.2
2014-Oct-30 06:23N 47°52' E 035°06'1 0.7
2014-Oct-30 05:33N 47°52' E 035°06'0 0.5
2014-Oct-30 04:33N 47°53' E 035°06'0 0.0
2014-Oct-30 03:33N 47°53' E 035°06'3 3.2
2014-Oct-30 02:32N 47°56' E 035°07'  
2014-Oct-22 17:26N 47°59' E 035°07'4 5.1
2014-Oct-22 16:33N 47°54' E 035°07'1 1.4
2014-Oct-22 15:33N 47°53' E 035°06'1 0.9
2014-Oct-22 14:21N 47°52' E 035°05'2 2.7
2014-Oct-22 13:33N 47°50' E 035°07'2 2.5
2014-Oct-22 12:33N 47°48' E 035°10'4 4.4
2014-Oct-22 11:33N 47°52' E 035°05'0 0.0
2014-Oct-22 10:33N 47°52' E 035°05'0 0.3
2014-Oct-22 09:33N 47°52' E 035°05'0 0.4
2014-Oct-22 08:33N 47°51' E 035°05'4 3.8
2014-Oct-22 07:33N 47°49' E 035°09'0 0.0
2014-Oct-22 06:33N 47°49' E 035°09'0 0.0
2014-Oct-22 05:33N 47°49' E 035°09'0 0.0
2014-Oct-22 04:33N 47°49' E 035°09'0 0.0
2014-Oct-22 03:33N 47°49' E 035°09'0 0.0
2014-Oct-22 02:33N 47°49' E 035°09'0 0.0
2014-Oct-22 01:33N 47°49' E 035°09'0 0.1
2014-Oct-22 00:33N 47°49' E 035°09'0 0.0
2014-Oct-21 23:33N 47°49' E 035°09'0 0.0
2014-Oct-21 22:33N 47°49' E 035°09'3 3.2
2014-Oct-21 21:33N 47°45' E 035°10'5 4.9
2014-Oct-21 20:33N 47°41' E 035°08'5 5.0
2014-Oct-21 19:34N 47°37' E 035°03'  

Dump ship's entire track history